createdAt,value
2023-04-22T00:01:46.606Z,4.00
2023-04-22T00:02:52.750Z,3.14
2023-04-22T00:03:55.658Z,3.12
2023-04-22T00:04:59.012Z,3.67
2023-04-22T00:06:02.203Z,3.00
2023-04-22T00:07:05.027Z,3.43
2023-04-22T00:08:07.940Z,3.67
2023-04-22T00:09:10.650Z,3.00
2023-04-22T00:10:13.434Z,3.33
2023-04-22T00:11:16.179Z,3.67
2023-04-22T00:12:18.841Z,3.33
2023-04-22T00:13:22.566Z,3.00
2023-04-22T00:14:25.139Z,3.14
2023-04-22T00:15:27.813Z,3.00
2023-04-22T00:16:30.493Z,3.00
2023-04-22T00:17:33.266Z,3.43
2023-04-22T00:18:35.993Z,4.00
2023-04-22T00:19:39.124Z,4.00
2023-04-22T00:20:42.167Z,4.29
2023-04-22T00:21:44.831Z,3.17
2023-04-22T00:22:47.599Z,3.33
2023-04-22T00:23:50.173Z,4.43
2023-04-22T00:24:52.945Z,4.33
2023-04-22T00:25:55.556Z,3.00
2023-04-22T00:26:58.406Z,2.67
2023-04-22T00:28:01.750Z,2.67
2023-04-22T00:29:04.506Z,3.86
2023-04-22T00:30:07.215Z,4.00
2023-04-22T00:31:09.866Z,3.50
2023-04-22T00:32:12.556Z,3.00
2023-04-22T00:33:15.258Z,3.00
2023-04-22T00:34:18.108Z,3.43
2023-04-22T00:35:20.901Z,3.33
2023-04-22T00:36:23.515Z,2.86
2023-04-22T00:37:26.150Z,3.17
2023-04-22T00:38:28.792Z,3.00
2023-04-22T00:39:31.444Z,3.00
2023-04-22T00:40:34.201Z,3.33
2023-04-22T00:41:37.056Z,4.00
2023-04-22T00:42:39.893Z,4.00
2023-04-22T00:43:42.760Z,3.17
2023-04-22T00:44:45.448Z,3.00
2023-04-22T00:45:48.095Z,4.00
2023-04-22T00:46:50.789Z,3.67
2023-04-22T00:47:53.582Z,3.33
2023-04-22T00:48:56.242Z,3.71
2023-04-22T00:49:58.914Z,4.00
2023-04-22T00:51:01.613Z,3.67
2023-04-22T00:52:04.201Z,3.83
2023-04-22T00:53:07.148Z,3.67
2023-04-22T00:54:09.991Z,3.33
2023-04-22T00:55:12.917Z,3.67
2023-04-22T00:56:15.590Z,2.43
2023-04-22T00:57:18.237Z,3.00
2023-04-22T00:58:20.954Z,3.00
2023-04-22T00:59:23.735Z,3.00
2023-04-22T01:00:26.456Z,3.00
2023-04-22T01:01:29.190Z,3.00
2023-04-22T01:02:32.123Z,3.00
2023-04-22T01:03:35.262Z,3.29
2023-04-22T01:04:38.155Z,3.67
2023-04-22T01:05:40.830Z,3.00
2023-04-22T01:06:43.493Z,3.00
2023-04-22T01:07:46.153Z,3.00
2023-04-22T01:08:49.034Z,3.00
2023-04-22T01:09:52.094Z,3.00
2023-04-22T01:10:54.726Z,3.00
2023-04-22T01:11:57.399Z,3.33
2023-04-22T01:13:00.018Z,3.71
2023-04-22T01:14:02.799Z,4.00
2023-04-22T01:15:05.603Z,4.00
2023-04-22T01:16:08.502Z,3.14
2023-04-22T01:17:14.192Z,2.33
2023-04-22T01:18:16.953Z,2.25
2023-04-22T01:19:19.588Z,2.43
2023-04-22T01:20:22.386Z,3.33
2023-04-22T01:21:25.320Z,2.67
2023-04-22T01:22:27.959Z,3.00
2023-04-22T01:23:30.602Z,2.50
2023-04-22T01:24:33.530Z,3.33
2023-04-22T01:25:36.472Z,3.67
2023-04-22T01:26:39.343Z,3.00
2023-04-22T01:27:42.238Z,3.00
2023-04-22T01:28:44.925Z,4.00
2023-04-22T01:29:47.528Z,4.71
2023-04-22T01:30:50.457Z,3.00
2023-04-22T01:31:53.213Z,2.67
2023-04-22T01:32:56.027Z,2.33
2023-04-22T01:33:58.712Z,2.67
2023-04-22T01:35:01.439Z,2.43
2023-04-22T01:36:04.358Z,2.33
2023-04-22T01:37:07.239Z,3.00
2023-04-22T01:38:10.143Z,3.00
2023-04-22T01:39:13.001Z,3.00
2023-04-22T01:40:15.653Z,3.00
2023-04-22T01:41:18.419Z,3.00
2023-04-22T01:42:21.207Z,3.00
2023-04-22T01:43:23.886Z,2.67
2023-04-22T01:44:26.580Z,2.33
2023-04-22T01:45:29.349Z,3.33
2023-04-22T01:46:32.444Z,3.67
2023-04-22T01:47:35.154Z,3.00
2023-04-22T01:48:38.137Z,3.00
2023-04-22T01:49:41.187Z,3.00
2023-04-22T01:50:44.214Z,2.57
2023-04-22T01:51:47.027Z,2.00
2023-04-22T01:52:49.890Z,2.33
2023-04-22T01:53:52.669Z,3.00
2023-04-22T01:54:55.528Z,2.83
2023-04-22T01:55:58.327Z,2.57
2023-04-22T01:57:01.373Z,3.00
2023-04-22T01:58:04.046Z,3.43
2023-04-22T01:59:06.714Z,4.00
2023-04-22T02:00:09.405Z,4.00
2023-04-22T02:01:12.420Z,4.00
2023-04-22T02:02:15.916Z,3.50
2023-04-22T02:03:18.806Z,4.00
2023-04-22T02:04:21.682Z,3.83
2023-04-22T02:05:24.649Z,4.33
2023-04-22T02:06:27.328Z,5.00
2023-04-22T02:07:30.068Z,4.50
2023-04-22T02:08:32.940Z,4.00
2023-04-22T02:09:35.743Z,4.43
2023-04-22T02:10:38.697Z,4.33
2023-04-22T02:11:41.399Z,3.33
2023-04-22T02:12:44.404Z,3.67
2023-04-22T02:13:47.362Z,3.00
2023-04-22T02:14:50.269Z,3.57
2023-04-22T02:15:52.959Z,3.33
2023-04-22T02:16:55.966Z,4.00
2023-04-22T02:17:58.848Z,4.00
2023-04-22T02:19:01.694Z,4.00
2023-04-22T02:20:04.726Z,4.00
2023-04-22T02:21:07.698Z,3.86
2023-04-22T02:22:10.573Z,3.00
2023-04-22T02:23:13.294Z,2.67
2023-04-22T02:24:16.727Z,2.00
2023-04-22T02:25:19.388Z,2.86
2023-04-22T02:26:22.207Z,3.67
2023-04-22T02:27:27.840Z,3.33
2023-04-22T02:28:30.731Z,4.00
2023-04-22T02:29:33.353Z,4.00
2023-04-22T02:30:35.976Z,3.83
2023-04-22T02:31:38.811Z,3.67
2023-04-22T02:32:41.385Z,4.00
2023-04-22T02:33:44.386Z,4.67
2023-04-22T02:34:46.990Z,4.00
2023-04-22T02:35:49.629Z,3.67
2023-04-22T02:36:52.238Z,4.00
2023-04-22T02:37:54.823Z,4.00
2023-04-22T02:38:57.689Z,5.00
2023-04-22T02:40:00.658Z,4.67
2023-04-22T02:41:03.347Z,3.14
2023-04-22T02:42:06.113Z,3.17
2023-04-22T02:43:08.783Z,3.33
2023-04-22T02:44:11.733Z,4.00
2023-04-22T02:45:14.324Z,4.33
2023-04-22T02:46:17.153Z,4.50
2023-04-22T02:47:20.013Z,4.00
2023-04-22T02:48:22.647Z,4.00
2023-04-22T02:49:25.672Z,4.33
2023-04-22T02:50:28.308Z,5.00
2023-04-22T02:51:31.155Z,4.67
2023-04-22T02:52:33.834Z,4.33
2023-04-22T02:53:36.414Z,4.67
2023-04-22T02:54:39.273Z,4.00
2023-04-22T02:55:42.114Z,4.00
2023-04-22T02:56:45.024Z,4.29
2023-04-22T02:57:47.880Z,5.00
2023-04-22T02:58:50.612Z,5.00
2023-04-22T02:59:53.479Z,5.33
2023-04-22T03:00:56.372Z,5.14
2023-04-22T03:01:59.261Z,5.00
2023-04-22T03:03:02.070Z,5.00
2023-04-22T03:04:04.968Z,5.00
2023-04-22T03:05:07.745Z,5.00
2023-04-22T03:06:10.366Z,5.00
2023-04-22T03:07:13.312Z,5.00
2023-04-22T03:08:16.132Z,4.67
2023-04-22T03:09:18.994Z,4.86
2023-04-22T03:10:21.890Z,4.67
2023-04-22T03:11:24.769Z,4.57
2023-04-22T03:12:27.620Z,5.50
2023-04-22T03:13:30.478Z,4.14
2023-04-22T03:14:33.407Z,4.00
2023-04-22T03:15:36.176Z,5.57
2023-04-22T03:16:38.835Z,4.83
2023-04-22T03:17:41.503Z,5.33
2023-04-22T03:18:44.155Z,5.50
2023-04-22T03:19:46.995Z,6.33
2023-04-22T03:20:49.634Z,6.67
2023-04-22T03:21:52.654Z,7.00
2023-04-22T03:22:55.567Z,7.00
2023-04-22T03:23:58.148Z,6.67
2023-04-22T03:25:00.837Z,6.33
2023-04-22T03:26:03.845Z,7.00
2023-04-22T03:27:06.772Z,5.67
2023-04-22T03:28:09.457Z,4.71
2023-04-22T03:29:12.126Z,4.67
2023-04-22T03:30:14.721Z,5.33
2023-04-22T03:31:18.093Z,5.33
2023-04-22T03:32:21.086Z,6.00
2023-04-22T03:33:23.989Z,6.33
2023-04-22T03:34:26.830Z,5.33
2023-04-22T03:35:29.461Z,4.43
2023-04-22T03:36:32.091Z,5.00
2023-04-22T03:37:35.057Z,5.33
2023-04-22T03:38:37.948Z,5.29
2023-04-22T03:39:41.079Z,4.67
2023-04-22T03:40:44.148Z,5.71
2023-04-22T03:41:46.729Z,4.50
2023-04-22T03:42:49.343Z,5.00
2023-04-22T03:43:52.432Z,4.57
2023-04-22T03:44:55.043Z,4.00
2023-04-22T03:45:57.763Z,4.50
2023-04-22T03:47:00.737Z,4.67
2023-04-22T03:48:04.145Z,4.29
2023-04-22T03:49:06.894Z,4.86
2023-04-22T03:50:09.592Z,4.67
2023-04-22T03:51:12.439Z,4.00
2023-04-22T03:52:15.403Z,4.00
2023-04-22T03:53:18.386Z,4.00
2023-04-22T03:54:21.044Z,4.00
2023-04-22T03:55:23.670Z,4.00
2023-04-22T03:56:26.364Z,4.33
2023-04-22T03:57:29.222Z,5.00
2023-04-22T03:58:32.270Z,5.00
2023-04-22T03:59:34.833Z,5.00
2023-04-22T04:00:37.803Z,5.00
2023-04-22T04:01:40.724Z,5.00
2023-04-22T04:02:43.787Z,5.00
2023-04-22T04:03:46.808Z,5.43
2023-04-22T04:04:49.819Z,5.29
2023-04-22T04:05:53.229Z,5.00
2023-04-22T04:06:56.178Z,4.50
2023-04-22T04:07:59.235Z,4.00
2023-04-22T04:09:01.843Z,4.00
2023-04-22T04:10:04.943Z,5.00
2023-04-22T04:11:07.623Z,6.14
2023-04-22T04:12:10.301Z,5.50
2023-04-22T04:13:12.958Z,5.00
2023-04-22T04:14:15.698Z,4.57
2023-04-22T04:15:18.526Z,4.33
2023-04-22T04:16:21.586Z,5.00
2023-04-22T04:17:24.537Z,5.67
2023-04-22T04:18:27.576Z,5.17
2023-04-22T04:19:30.170Z,4.14
2023-04-22T04:20:32.801Z,3.67
2023-04-22T04:21:35.539Z,5.00
2023-04-22T04:22:38.172Z,5.43
2023-04-22T04:23:40.833Z,5.67
2023-04-22T04:24:43.525Z,4.00
2023-04-22T04:25:46.322Z,4.00
2023-04-22T04:26:48.940Z,3.67
2023-04-22T04:27:51.999Z,4.17
2023-04-22T04:28:55.041Z,3.57
2023-04-22T04:29:57.977Z,3.14
2023-04-22T04:31:01.016Z,2.67
2023-04-22T04:32:03.834Z,2.67
2023-04-22T04:33:06.622Z,3.43
2023-04-22T04:34:09.690Z,3.00
2023-04-22T04:35:12.541Z,3.00
2023-04-22T04:36:15.373Z,3.00
2023-04-22T04:37:18.275Z,3.43
2023-04-22T04:38:21.176Z,4.00
2023-04-22T04:39:24.134Z,4.00
2023-04-22T04:40:27.053Z,4.00
2023-04-22T04:41:29.784Z,3.67
2023-04-22T04:42:32.724Z,3.33
2023-04-22T04:43:35.839Z,3.67
2023-04-22T04:44:38.657Z,3.33
2023-04-22T04:45:41.585Z,4.71
2023-04-22T04:46:44.218Z,4.17
2023-04-22T04:47:46.965Z,3.00
2023-04-22T04:48:50.068Z,3.00
2023-04-22T04:49:52.836Z,3.14
2023-04-22T04:50:55.586Z,3.50
2023-04-22T04:51:58.248Z,3.43
2023-04-22T04:53:01.034Z,3.67
2023-04-22T04:54:03.724Z,3.00
2023-04-22T04:55:06.469Z,3.00
2023-04-22T04:56:09.149Z,3.00
2023-04-22T04:57:11.767Z,3.17
2023-04-22T04:58:14.695Z,3.67
2023-04-22T04:59:17.581Z,3.00
2023-04-22T05:00:20.247Z,3.00
2023-04-22T05:01:22.985Z,3.00
2023-04-22T05:02:26.094Z,3.00
2023-04-22T05:03:29.589Z,2.14
2023-04-22T05:04:32.736Z,2.71
2023-04-22T05:05:35.892Z,2.57
2023-04-22T05:06:38.585Z,2.00
2023-04-22T05:07:41.530Z,2.00
2023-04-22T05:08:44.387Z,1.71
2023-04-22T05:09:47.343Z,1.33
2023-04-22T05:10:50.573Z,0.43
2023-04-22T05:11:53.399Z,1.00
2023-04-22T05:12:56.055Z,1.00
2023-04-22T05:13:58.658Z,0.67
2023-04-22T05:15:01.315Z,0.33
2023-04-22T05:16:04.275Z,0.67
2023-04-22T05:17:07.220Z,0.33
2023-04-22T05:18:09.830Z,0.29
2023-04-22T05:19:12.479Z,0.00
2023-04-22T05:20:15.184Z,0.00
2023-04-22T05:21:18.252Z,0.00
2023-04-22T05:22:20.954Z,0.00
2023-04-22T05:23:23.747Z,0.00
2023-04-22T05:24:26.425Z,0.00
2023-04-22T05:25:29.006Z,0.33
2023-04-22T05:26:31.943Z,0.00
2023-04-22T05:27:34.591Z,0.00
2023-04-22T05:28:37.194Z,0.33
2023-04-22T05:29:40.200Z,0.50
2023-04-22T05:30:43.456Z,0.43
2023-04-22T05:31:46.640Z,0.67
2023-04-22T05:32:49.658Z,0.43
2023-04-22T05:33:52.706Z,0.43
2023-04-22T05:34:55.582Z,0.00
2023-04-22T05:35:58.177Z,0.00
2023-04-22T05:37:01.132Z,0.00
2023-04-22T05:38:03.777Z,0.00
2023-04-22T05:39:06.670Z,0.00
2023-04-22T05:40:10.535Z,0.00
2023-04-22T05:41:13.423Z,0.00
2023-04-22T05:42:16.591Z,0.33
2023-04-22T05:43:19.562Z,1.00
2023-04-22T05:44:22.408Z,0.33
2023-04-22T05:45:25.221Z,0.00
2023-04-22T05:46:28.332Z,0.00
2023-04-22T05:47:31.299Z,0.00
2023-04-22T05:48:33.953Z,0.00
2023-04-22T05:49:36.593Z,0.00
2023-04-22T05:50:39.454Z,0.33
2023-04-22T05:51:42.360Z,0.50
2023-04-22T05:52:45.171Z,1.00
2023-04-22T05:53:47.811Z,0.83
2023-04-22T05:54:50.988Z,0.67
2023-04-22T05:55:53.782Z,1.00
2023-04-22T05:56:56.633Z,0.57
2023-04-22T05:57:59.728Z,0.00
2023-04-22T05:59:02.389Z,0.33
2023-04-22T06:00:05.036Z,1.00
2023-04-22T06:01:07.734Z,1.00
2023-04-22T06:02:10.388Z,1.00
2023-04-22T06:03:13.376Z,0.43
2023-04-22T06:04:16.413Z,0.00
2023-04-22T06:05:19.655Z,0.43
2023-04-22T06:06:22.544Z,0.67
2023-04-22T06:07:25.408Z,0.00
2023-04-22T06:08:28.337Z,0.00
2023-04-22T06:09:30.971Z,0.00
2023-04-22T06:10:33.594Z,0.00
2023-04-22T06:11:36.598Z,0.43
2023-04-22T06:12:39.230Z,1.33
2023-04-22T06:13:42.596Z,3.00
2023-04-22T06:14:45.409Z,3.57
2023-04-22T06:15:48.267Z,3.33
2023-04-22T06:16:51.171Z,4.00
2023-04-22T06:17:53.855Z,3.33
2023-04-22T06:18:56.615Z,4.00
2023-04-22T06:19:59.481Z,4.00
2023-04-22T06:21:02.148Z,3.57
2023-04-22T06:22:04.780Z,4.00
2023-04-22T06:23:07.691Z,4.00
2023-04-22T06:24:10.637Z,4.00
2023-04-22T06:25:13.230Z,4.00
2023-04-22T06:26:15.866Z,4.33
2023-04-22T06:27:18.457Z,4.67
2023-04-22T06:28:21.094Z,4.00
2023-04-22T06:29:24.014Z,4.33
2023-04-22T06:30:26.969Z,5.00
2023-04-22T06:31:29.824Z,5.00
2023-04-22T06:32:32.849Z,4.86
2023-04-22T06:33:35.779Z,4.33
2023-04-22T06:34:38.662Z,4.57
2023-04-22T06:35:41.529Z,4.33
2023-04-22T06:36:44.525Z,5.00
2023-04-22T06:37:47.234Z,5.00
2023-04-22T06:38:49.876Z,4.33
2023-04-22T06:39:52.467Z,3.00
2023-04-22T06:40:55.436Z,3.14
2023-04-22T06:41:58.473Z,3.00
2023-04-22T06:43:01.117Z,3.33
2023-04-22T06:44:03.994Z,3.67
2023-04-22T06:45:06.667Z,3.71
2023-04-22T06:46:09.440Z,4.00
2023-04-22T06:47:12.022Z,3.57
2023-04-22T06:48:14.770Z,3.00
2023-04-22T06:49:17.631Z,3.67
2023-04-22T06:50:20.542Z,4.71
2023-04-22T06:51:23.578Z,4.33
2023-04-22T06:52:26.792Z,5.33
2023-04-22T06:53:29.430Z,5.86
2023-04-22T06:54:32.055Z,5.67
2023-04-22T06:55:35.095Z,5.33
2023-04-22T06:56:37.750Z,6.00
2023-04-22T06:57:40.656Z,6.00
2023-04-22T06:58:43.345Z,5.50
2023-04-22T06:59:46.996Z,5.43
2023-04-22T07:00:50.111Z,7.00
2023-04-22T07:01:52.816Z,7.00
2023-04-22T07:02:55.572Z,5.29
2023-04-22T07:03:58.409Z,5.33
2023-04-22T07:05:02.699Z,5.57
2023-04-22T07:06:05.104Z,5.43
2023-04-22T07:07:07.801Z,6.57
2023-04-22T07:08:10.469Z,6.00
2023-04-22T07:09:13.126Z,6.00
2023-04-22T07:10:15.793Z,7.00
2023-04-22T07:11:18.580Z,7.67
2023-04-22T07:12:21.171Z,6.00
2023-04-22T07:13:23.790Z,6.33
2023-04-22T07:14:26.445Z,6.83
2023-04-22T07:15:29.094Z,7.00
2023-04-22T07:16:31.911Z,6.67
2023-04-22T07:17:34.570Z,8.00
2023-04-22T07:18:37.405Z,8.00
2023-04-22T07:19:40.605Z,6.67
2023-04-22T07:20:43.833Z,6.50
2023-04-22T07:21:46.899Z,7.00
2023-04-22T07:22:49.648Z,7.57
2023-04-22T07:23:52.317Z,6.67
2023-04-22T07:24:55.211Z,6.00
2023-04-22T07:25:58.066Z,6.83
2023-04-22T07:27:00.841Z,7.57
2023-04-22T07:28:03.453Z,7.00
2023-04-22T07:29:06.097Z,7.00
2023-04-22T07:30:08.823Z,6.67
2023-04-22T07:31:11.430Z,7.67
2023-04-22T07:32:14.192Z,7.33
2023-04-22T07:33:17.087Z,6.67
2023-04-22T07:34:19.673Z,7.57
2023-04-22T07:35:22.565Z,7.00
2023-04-22T07:36:25.401Z,7.33
2023-04-22T07:37:28.389Z,7.00
2023-04-22T07:38:31.030Z,7.43
2023-04-22T07:39:33.976Z,8.00
2023-04-22T07:40:36.604Z,8.83
2023-04-22T07:41:39.260Z,8.67
2023-04-22T07:42:42.091Z,8.00
2023-04-22T07:43:44.774Z,7.33
2023-04-22T07:44:47.594Z,6.33
2023-04-22T07:45:50.259Z,4.43
2023-04-22T07:46:52.858Z,3.50
2023-04-22T07:47:55.749Z,4.33
2023-04-22T07:48:58.414Z,5.00
2023-04-22T07:50:01.346Z,5.33
2023-04-22T07:51:04.150Z,6.14
2023-04-22T07:52:06.850Z,6.00
2023-04-22T07:53:09.629Z,5.00
2023-04-22T07:54:12.469Z,5.33
2023-04-22T07:55:15.339Z,5.57
2023-04-22T07:56:17.951Z,4.67
2023-04-22T07:57:20.550Z,3.00
2023-04-22T07:58:23.407Z,1.33
2023-04-22T07:59:26.193Z,3.33
2023-04-22T08:00:28.895Z,3.14
2023-04-22T08:01:31.530Z,2.33
2023-04-22T08:02:34.450Z,3.67
2023-04-22T08:03:37.357Z,4.86
2023-04-22T08:04:40.474Z,3.71
2023-04-22T08:05:43.234Z,2.67
2023-04-22T08:06:48.954Z,2.50
2023-04-22T08:07:51.608Z,2.50
2023-04-22T08:08:54.237Z,2.33
2023-04-22T08:09:56.908Z,2.67
2023-04-22T08:10:59.701Z,2.00
2023-04-22T08:12:02.397Z,1.67
2023-04-22T08:13:05.176Z,1.33
2023-04-22T08:14:08.317Z,2.00
2023-04-22T08:15:10.957Z,1.43
2023-04-22T08:16:13.604Z,1.00
2023-04-22T08:17:16.267Z,1.33
2023-04-22T08:18:18.911Z,2.00
2023-04-22T08:19:21.695Z,2.00
2023-04-22T08:20:24.330Z,1.67
2023-04-22T08:21:27.077Z,1.83
2023-04-22T08:22:30.802Z,1.57
2023-04-22T08:23:33.506Z,1.43
2023-04-22T08:24:36.587Z,2.00
2023-04-22T08:25:39.236Z,1.57
2023-04-22T08:26:41.826Z,1.83
2023-04-22T08:27:44.581Z,2.00
2023-04-22T08:28:47.218Z,2.00
2023-04-22T08:29:50.283Z,2.00
2023-04-22T08:30:52.895Z,1.86
2023-04-22T08:31:55.595Z,2.33
2023-04-22T08:32:58.238Z,1.67
2023-04-22T08:34:00.880Z,2.67
2023-04-22T08:35:05.441Z,2.33
2023-04-22T08:36:07.921Z,2.50
2023-04-22T08:37:10.620Z,2.00
2023-04-22T08:38:13.396Z,2.00
2023-04-22T08:39:16.047Z,2.00
2023-04-22T08:40:18.722Z,2.33
2023-04-22T08:41:21.353Z,2.67
2023-04-22T08:42:24.115Z,2.00
2023-04-22T08:43:26.783Z,2.43
2023-04-22T08:44:29.337Z,2.50
2023-04-22T08:45:32.050Z,2.00
2023-04-22T08:46:34.692Z,2.43
2023-04-22T08:47:37.317Z,2.67
2023-04-22T08:48:39.935Z,1.67
2023-04-22T08:49:42.652Z,2.33
2023-04-22T08:50:45.441Z,3.33
2023-04-22T08:51:48.142Z,3.33
2023-04-22T08:52:50.792Z,2.43
2023-04-22T08:53:53.391Z,3.33
2023-04-22T08:54:55.937Z,4.67
2023-04-22T08:55:58.620Z,5.33
2023-04-22T08:57:01.275Z,6.00
2023-04-22T08:58:03.861Z,5.67
2023-04-22T08:59:06.447Z,5.00
2023-04-22T09:00:09.013Z,5.00
2023-04-22T09:01:12.963Z,5.00
2023-04-22T09:02:15.570Z,4.71
2023-04-22T09:03:18.415Z,3.14
2023-04-22T09:04:21.126Z,2.67
2023-04-22T09:05:24.367Z,4.00
2023-04-22T09:06:27.945Z,4.43
2023-04-22T09:07:30.956Z,5.43
2023-04-22T09:08:33.726Z,5.00
2023-04-22T09:09:36.294Z,5.67
2023-04-22T09:10:38.934Z,6.00
2023-04-22T09:11:41.700Z,6.00
2023-04-22T09:12:44.558Z,6.00
2023-04-22T09:13:47.452Z,5.83
2023-04-22T09:14:50.086Z,6.00
2023-04-22T09:15:52.975Z,6.50
2023-04-22T09:16:55.854Z,6.43
2023-04-22T09:17:58.762Z,7.00
2023-04-22T09:19:01.660Z,6.33
2023-04-22T09:20:04.241Z,5.71
2023-04-22T09:21:06.895Z,6.67
2023-04-22T09:22:09.896Z,7.33
2023-04-22T09:23:12.593Z,6.57
2023-04-22T09:24:15.181Z,5.67
2023-04-22T09:25:18.070Z,5.00
2023-04-22T09:26:20.694Z,5.57
2023-04-22T09:27:23.520Z,7.00
2023-04-22T09:28:26.512Z,6.71
2023-04-22T09:29:29.182Z,7.00
2023-04-22T09:30:32.069Z,6.57
2023-04-22T09:31:34.998Z,6.33
2023-04-22T09:32:38.152Z,6.71
2023-04-22T09:33:42.727Z,8.29
2023-04-22T09:34:45.798Z,8.50
2023-04-22T09:35:48.408Z,7.57
2023-04-22T09:36:51.186Z,7.00
2023-04-22T09:37:54.309Z,5.57
2023-04-22T09:38:56.927Z,6.00
2023-04-22T09:39:59.602Z,7.00
2023-04-22T09:41:02.215Z,6.67
2023-04-22T09:42:04.916Z,6.00
2023-04-22T09:43:08.009Z,5.57
2023-04-22T09:44:10.793Z,5.50
2023-04-22T09:45:13.301Z,7.33
2023-04-22T09:46:16.198Z,7.67
2023-04-22T09:47:18.817Z,5.67
2023-04-22T09:48:21.729Z,5.00
2023-04-22T09:49:24.580Z,5.50
2023-04-22T09:50:27.166Z,6.57
2023-04-22T09:51:29.760Z,6.33
2023-04-22T09:52:32.365Z,7.50
2023-04-22T09:53:38.083Z,6.67
2023-04-22T09:54:40.686Z,7.00
2023-04-22T09:55:43.324Z,6.14
2023-04-22T09:56:45.888Z,6.50
2023-04-22T09:57:50.362Z,8.00
2023-04-22T09:58:53.222Z,8.00
2023-04-22T09:59:55.832Z,8.00
2023-04-22T10:00:58.521Z,9.00
2023-04-22T10:02:09.426Z,9.00
2023-04-22T10:03:12.668Z,8.71
2023-04-22T10:04:16.131Z,10.50
2023-04-22T10:05:19.279Z,11.67
2023-04-22T10:06:25.213Z,9.67
2023-04-22T10:07:28.199Z,9.00
2023-04-22T10:08:31.456Z,9.86
2023-04-22T10:09:37.801Z,10.29
2023-04-22T10:10:41.206Z,10.00
2023-04-22T10:11:44.290Z,10.00
2023-04-22T10:12:47.253Z,10.86
2023-04-22T10:13:50.888Z,10.29
2023-04-22T10:15:57.112Z,9.57
2023-04-22T10:17:00.437Z,9.00
2023-04-22T10:18:03.756Z,9.00
2023-04-22T10:19:07.159Z,9.00
2023-04-22T10:20:10.239Z,9.00
2023-04-22T10:21:13.531Z,8.14
2023-04-22T10:22:16.925Z,7.00
2023-04-22T10:23:20.058Z,7.00
2023-04-22T10:24:23.252Z,7.86
2023-04-22T10:25:26.355Z,7.86
2023-04-22T10:26:29.476Z,7.71
2023-04-22T10:27:32.689Z,8.00
2023-04-22T10:28:36.310Z,7.57
2023-04-22T10:29:40.160Z,7.87
2023-04-22T10:30:43.822Z,8.00
2023-04-22T10:31:47.130Z,7.14
2023-04-22T10:32:50.525Z,6.00
2023-04-22T10:33:54.060Z,6.00
2023-04-22T10:34:57.354Z,6.00
2023-04-22T10:36:00.406Z,6.57
2023-04-22T10:37:03.518Z,6.00
2023-04-22T10:38:06.698Z,5.57
2023-04-22T10:39:10.074Z,5.00
2023-04-22T10:40:13.512Z,5.43
2023-04-22T10:41:16.591Z,5.00
2023-04-22T10:42:19.737Z,5.43
2023-04-22T10:43:22.900Z,5.00
2023-04-22T10:44:26.500Z,4.43
2023-04-22T10:45:31.305Z,5.00
2023-04-22T10:46:34.810Z,4.75
2023-04-22T10:47:38.109Z,5.25
2023-04-22T10:48:41.794Z,5.33
2023-04-22T10:49:45.066Z,5.00
2023-04-22T10:50:48.158Z,5.57
2023-04-22T10:51:51.427Z,5.00
2023-04-22T10:52:54.373Z,5.00
2023-04-22T10:53:57.709Z,4.83
2023-04-22T10:55:01.015Z,4.86
2023-04-22T10:56:04.265Z,5.83
2023-04-22T10:57:07.453Z,4.50
2023-04-22T10:58:10.643Z,6.33
2023-04-22T11:05:50.517Z,5.00
2023-04-22T11:06:53.906Z,4.14
2023-04-22T11:07:57.282Z,5.00
2023-04-22T11:09:04.099Z,5.00
2023-04-22T11:10:07.451Z,5.00
2023-04-22T11:11:10.625Z,6.43
2023-04-22T11:12:13.903Z,6.71
2023-04-22T11:13:17.096Z,6.57
2023-04-22T11:14:20.677Z,6.00
2023-04-22T11:15:25.093Z,5.75
2023-04-22T11:16:28.803Z,6.00
2023-04-22T11:17:31.886Z,5.86
2023-04-22T11:18:35.097Z,5.86
2023-04-22T11:19:38.451Z,6.57
2023-04-22T11:20:42.017Z,6.29
2023-04-22T11:21:45.634Z,5.57
2023-04-22T11:22:48.689Z,5.43
2023-04-22T11:23:51.800Z,6.29
2023-04-22T11:24:55.165Z,6.00
2023-04-22T11:25:58.552Z,5.00
2023-04-22T11:27:01.931Z,4.71
2023-04-22T11:28:05.187Z,5.00
2023-04-22T11:29:08.089Z,5.43
2023-04-22T11:30:11.171Z,5.00
2023-04-22T11:31:14.710Z,5.33
2023-04-22T11:32:18.971Z,5.67
2023-04-22T11:33:22.068Z,5.50
2023-04-22T11:34:25.281Z,5.50
2023-04-22T11:35:28.413Z,5.00
2023-04-22T11:36:31.600Z,5.67
2023-04-22T11:37:34.573Z,6.67
2023-04-22T11:38:37.660Z,6.00
2023-04-22T11:39:54.515Z,6.00
2023-04-22T11:40:47.005Z,5.75
2023-04-22T11:41:49.654Z,5.50
2023-04-22T11:42:52.726Z,5.33
2023-04-22T11:43:55.928Z,5.00
2023-04-22T11:44:59.095Z,6.00
2023-04-22T11:46:02.377Z,6.00
2023-04-22T11:47:05.774Z,6.00
2023-04-22T11:48:09.074Z,6.00
2023-04-22T11:49:12.085Z,6.00
2023-04-22T11:50:15.082Z,7.67
2023-04-22T11:51:18.111Z,8.43
2023-04-22T11:52:21.368Z,7.43
2023-04-22T11:53:24.495Z,7.14
2023-04-22T11:54:27.531Z,6.33
2023-04-22T11:55:30.961Z,6.67
2023-04-22T11:56:33.994Z,6.43
2023-04-22T11:57:37.178Z,7.00
2023-04-22T11:58:40.566Z,7.00
2023-04-22T11:59:43.732Z,7.00
2023-04-22T12:00:46.853Z,7.43
2023-04-22T12:01:50.146Z,8.43
2023-04-22T12:02:53.435Z,8.14
2023-04-22T12:03:56.599Z,7.57
2023-04-22T12:04:59.821Z,7.43
2023-04-22T12:06:02.894Z,8.71
2023-04-22T12:07:06.009Z,9.33
2023-04-22T12:08:09.297Z,8.00
2023-04-22T12:09:13.927Z,8.13
2023-04-22T12:10:16.704Z,7.87
2023-04-22T12:11:19.678Z,8.33
2023-04-22T12:12:22.536Z,9.00
2023-04-22T12:13:25.636Z,8.67
2023-04-22T12:14:30.456Z,8.17
2023-04-22T12:15:33.024Z,8.57
2023-04-22T12:16:36.212Z,8.83
2023-04-22T12:17:39.385Z,9.57
2023-04-22T12:18:42.656Z,9.57
2023-04-22T12:19:45.852Z,8.00
2023-04-22T12:20:49.224Z,8.43
2023-04-22T12:21:52.401Z,9.00
2023-04-22T12:22:55.493Z,9.00
2023-04-22T12:23:58.875Z,8.14
2023-04-22T12:25:02.071Z,7.43
2023-04-22T12:26:04.935Z,8.43
2023-04-22T12:27:08.280Z,9.00
2023-04-22T12:28:11.393Z,9.00
2023-04-22T12:29:14.488Z,8.67
2023-04-22T12:30:17.658Z,8.33
2023-04-22T12:31:21.116Z,9.00
2023-04-22T12:32:24.911Z,8.57
2023-04-22T12:33:28.454Z,8.50
2023-04-22T12:34:31.605Z,9.00
2023-04-22T12:35:34.916Z,9.00
2023-04-22T12:36:38.108Z,8.57
2023-04-22T12:37:41.275Z,8.00
2023-04-22T12:38:44.465Z,8.86
2023-04-22T12:39:47.415Z,9.00
2023-04-22T12:40:50.624Z,9.00
2023-04-22T12:41:53.691Z,8.17
2023-04-22T12:42:56.995Z,8.43
2023-04-22T12:44:00.064Z,10.14
2023-04-22T12:45:03.240Z,9.71
2023-04-22T12:46:06.660Z,9.86
2023-04-22T12:47:09.910Z,10.00
2023-04-22T12:48:13.102Z,9.43
2023-04-22T12:49:16.370Z,8.57
2023-04-22T12:50:19.871Z,8.00
2023-04-22T12:51:23.142Z,8.00
2023-04-22T12:52:26.426Z,8.29
2023-04-22T12:53:29.513Z,9.00
2023-04-22T12:54:33.194Z,8.57
2023-04-22T12:55:36.487Z,7.75
2023-04-22T12:56:39.995Z,8.00
2023-04-22T12:57:43.776Z,8.00
2023-04-22T12:58:46.805Z,8.43
2023-04-22T12:59:50.147Z,9.00
2023-04-22T13:00:53.309Z,8.43
2023-04-22T13:01:57.243Z,7.57
2023-04-22T13:03:00.777Z,7.25
2023-04-22T13:04:04.441Z,7.00
2023-04-22T13:05:07.784Z,7.12
2023-04-22T13:06:14.371Z,6.57
2023-04-22T13:07:17.424Z,7.37
2023-04-22T13:08:20.715Z,7.67
2023-04-22T13:09:24.001Z,8.33
2023-04-22T13:10:27.079Z,7.33
2023-04-22T13:11:30.222Z,8.57
2023-04-22T13:12:33.443Z,8.43
2023-04-22T13:13:36.612Z,8.43
2023-04-22T13:14:39.905Z,8.57
2023-04-22T13:15:42.994Z,7.71
2023-04-22T13:16:46.070Z,7.57
2023-04-22T13:17:51.459Z,7.00
2023-04-22T13:18:54.359Z,7.50
2023-04-22T13:19:57.744Z,8.14
2023-04-22T13:21:00.779Z,8.57
2023-04-22T13:22:03.804Z,7.83
2023-04-22T13:23:09.704Z,8.14
2023-04-22T13:24:12.926Z,7.50
2023-04-22T13:25:16.007Z,7.86
